createdAt,value
2019-05-14T00:04:31.570Z,13.27
2019-05-14T00:09:36.325Z,14.83
2019-05-14T00:14:43.647Z,11.87
2019-05-14T00:19:46.278Z,18.53
2019-05-14T00:24:51.999Z,15.60
2019-05-14T00:29:56.267Z,11.30
2019-05-14T00:35:02.007Z,8.67
2019-05-14T00:40:06.187Z,11.37
2019-05-14T00:45:11.575Z,10.93
2019-05-14T00:50:15.990Z,10.93
2019-05-14T00:55:22.120Z,9.20
2019-05-14T01:00:25.933Z,16.80
2019-05-14T01:05:32.116Z,10.90
2019-05-14T01:10:36.650Z,12.47
2019-05-14T01:15:41.472Z,13.63
2019-05-14T01:20:45.641Z,11.70
2019-05-14T01:25:51.644Z,16.37
2019-05-14T01:30:55.419Z,9.73
2019-05-14T01:36:01.792Z,13.97
2019-05-14T01:41:05.379Z,11.17
2019-05-14T01:46:11.997Z,10.97
2019-05-14T01:51:15.305Z,11.37
2019-05-14T01:56:21.324Z,12.10
2019-05-14T02:01:25.607Z,11.57
2019-05-14T02:06:33.059Z,8.07
2019-05-14T02:11:37.305Z,19.00
2019-05-14T02:16:42.374Z,12.83
2019-05-14T02:21:46.718Z,14.60
2019-05-14T02:26:51.434Z,16.77
2019-05-14T02:31:58.830Z,12.27
2019-05-14T02:37:01.642Z,11.80
2019-05-14T02:42:09.027Z,16.27
2019-05-14T02:47:11.547Z,19.93
2019-05-14T02:52:15.603Z,13.87
2019-05-14T02:57:20.339Z,13.37
2019-05-14T03:02:24.539Z,18.00
2019-05-14T03:07:29.782Z,16.90
2019-05-14T03:12:35.097Z,18.97
2019-05-14T03:17:40.327Z,15.03
2019-05-14T03:22:58.697Z,19.03
2019-05-14T03:27:50.751Z,23.93
2019-05-14T03:32:54.931Z,14.00
2019-05-14T03:38:00.439Z,19.90
2019-05-14T03:43:04.891Z,20.03
2019-05-14T03:48:10.400Z,21.73
2019-05-14T03:53:14.988Z,18.63
2019-05-14T03:58:21.050Z,15.53
2019-05-14T04:03:25.114Z,23.17
2019-05-14T04:08:30.412Z,26.10
2019-05-14T04:13:35.969Z,15.60
2019-05-14T04:18:40.945Z,24.07
2019-05-14T04:23:50.796Z,20.80
2019-05-14T04:28:55.439Z,18.70
2019-05-14T04:34:01.617Z,13.57
2019-05-14T04:39:09.454Z,18.90
2019-05-14T04:44:15.101Z,14.37
2019-05-14T04:49:20.032Z,20.43
2019-05-14T04:54:24.290Z,20.20
2019-05-14T04:59:29.957Z,21.00
2019-05-14T05:04:34.737Z,24.40
2019-05-14T05:09:39.750Z,26.37
2019-05-14T05:14:45.332Z,23.97
2019-05-14T05:19:51.595Z,17.77
2019-05-14T05:24:55.174Z,16.77
2019-05-14T05:29:59.367Z,15.73
2019-05-14T05:35:03.538Z,18.80
2019-05-14T05:40:09.128Z,18.90
2019-05-14T05:45:13.867Z,23.37
2019-05-14T05:50:19.335Z,20.20
2019-05-14T05:55:23.614Z,19.87
2019-05-14T06:00:33.954Z,17.43
2019-05-14T06:05:39.052Z,19.10
2019-05-14T06:10:44.251Z,19.27
2019-05-14T06:15:51.458Z,22.43
2019-05-14T06:20:54.191Z,16.50
2019-05-14T06:25:59.741Z,19.50
2019-05-14T06:31:04.602Z,18.77
2019-05-14T06:36:08.967Z,29.50
2019-05-14T06:41:13.228Z,18.33
2019-05-14T06:46:19.350Z,25.67
2019-05-14T06:51:23.183Z,22.70
2019-05-14T06:56:28.238Z,20.60
2019-05-14T07:01:32.539Z,17.47
2019-05-14T07:06:38.933Z,24.40
2019-05-14T07:11:42.583Z,19.73
2019-05-14T07:16:48.500Z,23.63
2019-05-14T07:21:52.561Z,23.10
2019-05-14T07:26:58.719Z,28.17
2019-05-14T07:32:02.533Z,23.23
2019-05-14T07:37:09.051Z,25.63
2019-05-14T07:42:12.309Z,26.27
2019-05-14T07:47:18.549Z,22.57
2019-05-14T07:52:22.100Z,22.90
2019-05-14T07:57:28.320Z,33.13
2019-05-14T08:02:32.197Z,19.73
2019-05-14T08:07:38.625Z,21.63
2019-05-14T08:12:42.018Z,26.43
2019-05-14T08:17:48.294Z,22.90
2019-05-14T08:22:51.893Z,19.53
2019-05-14T08:27:55.975Z,23.00
2019-05-14T08:33:00.107Z,22.40
2019-05-14T08:38:08.364Z,16.00
2019-05-14T08:43:10.057Z,27.87
2019-05-14T08:48:14.177Z,22.20
2019-05-14T08:53:18.706Z,30.63
2019-05-14T08:58:22.998Z,26.23
2019-05-14T09:03:28.758Z,23.43
2019-05-14T09:08:33.252Z,20.87
2019-05-14T09:13:38.301Z,26.13
2019-05-14T09:18:42.851Z,19.20
2019-05-14T09:23:48.162Z,17.93
2019-05-14T09:28:52.495Z,19.73
2019-05-14T09:33:58.459Z,22.20
2019-05-14T09:39:02.981Z,20.00
2019-05-14T09:44:09.170Z,23.47
2019-05-14T09:49:13.017Z,21.70
2019-05-14T09:54:19.275Z,25.10
2019-05-14T09:59:23.099Z,24.17
2019-05-14T10:04:27.184Z,22.07
2019-05-14T10:09:31.337Z,19.33
2019-05-14T10:14:35.429Z,17.57
2019-05-14T10:19:39.704Z,19.00
2019-05-14T10:24:43.987Z,18.23
2019-05-14T10:29:48.302Z,19.80
2019-05-14T10:34:52.499Z,23.50
2019-05-14T10:39:58.652Z,16.73
2019-05-14T10:45:02.294Z,18.43
2019-05-14T10:50:13.371Z,20.10
2019-05-14T10:55:13.348Z,22.00
2019-05-14T11:00:18.608Z,19.27
2019-05-14T11:05:23.036Z,19.37
2019-05-14T11:10:29.659Z,28.50
2019-05-14T11:15:32.959Z,24.70
2019-05-14T11:20:41.727Z,23.43
2019-05-14T11:25:42.999Z,17.50
2019-05-14T11:30:49.378Z,20.17
2019-05-14T11:35:52.948Z,23.93
2019-05-14T11:40:58.762Z,13.77
2019-05-14T11:46:02.785Z,20.57
2019-05-14T11:51:09.074Z,21.30
2019-05-14T11:56:12.653Z,19.70
2019-05-14T12:01:18.821Z,25.73
2019-05-14T12:06:34.163Z,26.67
2019-05-14T12:11:38.615Z,23.17
2019-05-14T12:16:42.917Z,23.07
2019-05-14T12:22:02.301Z,25.53
2019-05-14T12:26:53.951Z,21.50
2019-05-14T12:31:58.641Z,27.47
2019-05-14T12:37:02.974Z,22.57
2019-05-14T12:42:10.543Z,22.37
2019-05-14T12:47:12.814Z,20.00
2019-05-14T12:52:24.785Z,20.33
2019-05-14T12:57:22.819Z,16.90
2019-05-14T13:02:29.448Z,13.20
2019-05-14T13:07:32.751Z,21.83
2019-05-14T13:12:39.090Z,15.13
2019-05-14T13:17:43.585Z,20.63
2019-05-14T13:22:50.321Z,19.10
2019-05-14T13:27:54.709Z,26.47
2019-05-14T13:32:59.290Z,17.63
2019-05-14T13:38:03.643Z,17.53
2019-05-14T13:43:09.819Z,19.00
2019-05-14T13:48:13.614Z,21.20
2019-05-14T13:53:18.895Z,18.10
2019-05-14T13:58:23.241Z,17.17
2019-05-14T14:03:29.188Z,20.13
2019-05-14T14:08:33.108Z,19.80
2019-05-14T14:13:39.201Z,22.93
2019-05-14T14:18:42.939Z,15.57
2019-05-14T14:23:49.446Z,31.47
2019-05-14T14:28:54.052Z,18.10
2019-05-14T14:33:58.161Z,21.70
2019-05-14T14:39:02.319Z,16.07
2019-05-14T14:44:08.761Z,24.20
2019-05-14T14:49:12.314Z,17.70
2019-05-14T14:54:16.602Z,15.87
2019-05-14T14:59:20.841Z,17.40
2019-05-14T15:04:24.885Z,22.83
2019-05-14T15:09:29.037Z,18.47
2019-05-14T15:14:33.185Z,22.30
2019-05-14T15:19:39.490Z,26.07
2019-05-14T15:24:43.388Z,18.57
2019-05-14T15:29:48.826Z,16.40
2019-05-14T15:34:53.354Z,18.70
2019-05-14T15:39:57.493Z,16.73
2019-05-14T15:45:01.622Z,13.77
2019-05-14T15:50:08.924Z,12.63
2019-05-14T15:55:12.685Z,14.63
2019-05-14T16:00:19.565Z,9.10
2019-05-14T16:05:22.993Z,9.63
2019-05-14T16:10:30.928Z,7.67
2019-05-14T16:15:33.159Z,9.03
2019-05-14T16:20:39.253Z,7.73
2019-05-14T16:25:43.208Z,6.00
2019-05-14T16:30:49.679Z,4.87
2019-05-14T16:35:53.132Z,15.93
2019-05-14T16:40:59.633Z,13.13
2019-05-14T16:46:03.005Z,7.70
2019-05-14T16:51:08.903Z,10.13
2019-05-14T16:56:13.292Z,9.97
2019-05-14T17:01:19.310Z,10.13
2019-05-14T17:06:23.268Z,6.37
2019-05-14T17:11:28.377Z,8.00
2019-05-14T17:16:38.158Z,6.70
2019-05-14T17:21:42.322Z,8.93
2019-05-14T17:26:48.746Z,9.33
2019-05-14T17:31:52.369Z,7.67
2019-05-14T17:36:59.198Z,7.40
2019-05-14T17:42:03.251Z,5.30
2019-05-14T17:47:07.589Z,5.47
2019-05-14T17:52:11.913Z,6.60
2019-05-14T17:57:16.090Z,6.57
2019-05-14T18:02:20.383Z,8.87
2019-05-14T18:07:24.485Z,7.37
2019-05-14T18:12:30.514Z,6.87
2019-05-14T18:17:34.466Z,7.80
2019-05-14T18:22:42.225Z,7.33
2019-05-14T18:27:44.380Z,7.27
2019-05-14T18:32:48.807Z,10.97
2019-05-14T18:37:52.945Z,10.70
2019-05-14T18:42:59.108Z,9.57
2019-05-14T18:48:02.782Z,7.90
2019-05-14T18:53:09.024Z,5.00
2019-05-14T18:58:12.967Z,10.87
2019-05-14T19:03:19.680Z,10.30
2019-05-14T19:08:22.985Z,9.57
2019-05-14T19:13:28.183Z,11.60
2019-05-14T19:18:33.100Z,12.40
2019-05-14T19:23:38.438Z,11.20
2019-05-14T19:28:43.020Z,9.60
2019-05-14T19:33:48.766Z,8.97
2019-05-14T19:38:52.977Z,8.50
2019-05-14T19:43:59.457Z,9.83
2019-05-14T19:49:03.196Z,14.07
2019-05-14T19:54:08.175Z,13.70
2019-05-14T19:59:12.484Z,12.20
2019-05-14T20:04:18.346Z,11.30
2019-05-14T20:09:22.616Z,6.63
2019-05-14T20:14:28.711Z,11.37
2019-05-14T20:19:32.510Z,13.70
2019-05-14T20:24:41.165Z,9.20
2019-05-14T20:29:43.442Z,10.93
2019-05-14T20:34:48.706Z,6.93
2019-05-14T20:39:52.872Z,8.40
2019-05-14T20:44:57.033Z,10.33
2019-05-14T20:50:01.259Z,11.13
2019-05-14T20:55:05.914Z,12.17
2019-05-14T21:00:11.850Z,12.17
2019-05-14T21:05:16.183Z,8.67
2019-05-14T21:10:20.485Z,13.43
2019-05-14T21:15:24.591Z,8.00
2019-05-14T21:20:28.731Z,9.00
2019-05-14T21:25:33.305Z,10.63
2019-05-14T21:30:38.866Z,11.83
2019-05-14T21:35:43.229Z,14.13
2019-05-14T21:40:49.762Z,11.97
2019-05-14T21:45:53.134Z,8.30
2019-05-14T21:51:00.548Z,15.00
2019-05-14T21:56:03.037Z,8.80
2019-05-14T22:01:07.961Z,15.77
2019-05-14T22:06:12.259Z,14.07
2019-05-14T22:11:18.659Z,16.73
2019-05-14T22:16:22.211Z,11.17
2019-05-14T22:21:26.341Z,9.50
2019-05-14T22:26:30.477Z,6.53
2019-05-14T22:31:34.754Z,21.43
2019-05-14T22:36:38.988Z,13.20
2019-05-14T22:41:43.021Z,21.17
2019-05-14T22:46:49.009Z,12.13
2019-05-14T22:51:52.844Z,13.03
2019-05-14T22:56:58.915Z,11.20
2019-05-14T23:02:02.722Z,8.83
2019-05-14T23:07:08.222Z,12.03
2019-05-14T23:12:12.523Z,12.07
2019-05-14T23:17:16.529Z,12.87
2019-05-14T23:22:20.559Z,17.87
2019-05-14T23:27:24.762Z,11.87
2019-05-14T23:32:28.922Z,11.47
2019-05-14T23:37:32.906Z,10.33
2019-05-14T23:42:39.194Z,16.93
2019-05-14T23:47:42.717Z,8.73
2019-05-14T23:52:49.221Z,12.40
2019-05-14T23:57:52.447Z,13.07
